createdAt,value
2023-05-14T00:01:04.631Z,99872.28
2023-05-14T00:03:32.968Z,99872.27
2023-05-14T00:06:01.154Z,99872.09
2023-05-14T00:08:29.333Z,99874.54
2023-05-14T00:10:57.191Z,99870.68
2023-05-14T00:13:25.477Z,99867.90
2023-05-14T00:15:53.672Z,99860.73
2023-05-14T00:18:21.965Z,99862.30
2023-05-14T00:20:55.082Z,99861.09
2023-05-14T00:23:23.192Z,99856.02
2023-05-14T00:25:51.048Z,99854.28
2023-05-14T00:28:19.027Z,99850.45
2023-05-14T00:30:47.302Z,99850.27
2023-05-14T00:33:15.575Z,99854.29
2023-05-14T00:35:43.747Z,99860.05
2023-05-14T00:38:17.140Z,99862.66
2023-05-14T00:40:50.244Z,99860.91
2023-05-14T00:43:18.614Z,99864.58
2023-05-14T00:45:46.689Z,99860.40
2023-05-14T00:48:14.864Z,99856.91
2023-05-14T00:50:42.937Z,99856.90
2023-05-14T00:53:11.512Z,99856.55
2023-05-14T00:55:39.481Z,99854.25
2023-05-14T00:58:07.451Z,99854.95
2023-05-14T01:00:35.343Z,99856.52
2023-05-14T01:03:03.653Z,99860.53
2023-05-14T01:05:31.884Z,99858.97
2023-05-14T01:07:59.834Z,99856.54
2023-05-14T01:10:27.815Z,99859.85
2023-05-14T01:12:55.992Z,99859.52
2023-05-14T01:15:24.162Z,99862.65
2023-05-14T01:17:52.355Z,99864.73
2023-05-14T01:20:20.310Z,99865.27
2023-05-14T01:22:48.370Z,99867.00
2023-05-14T01:25:16.541Z,99862.33
2023-05-14T01:27:44.620Z,99862.48
2023-05-14T01:30:12.813Z,99861.09
2023-05-14T01:32:41.077Z,99856.21
2023-05-14T01:35:09.138Z,99855.35
2023-05-14T01:37:37.210Z,99849.77
2023-05-14T01:40:05.278Z,99850.46
2023-05-14T01:42:33.452Z,99850.48
2023-05-14T01:45:01.728Z,99849.08
2023-05-14T01:47:29.766Z,99846.09
2023-05-14T01:49:57.782Z,99848.34
2023-05-14T01:52:25.740Z,99845.18
2023-05-14T01:54:53.916Z,99843.78
2023-05-14T01:57:21.981Z,99845.70
2023-05-14T01:59:50.052Z,99850.04
2023-05-14T02:02:18.026Z,99849.16
2023-05-14T02:04:46.719Z,99850.02
2023-05-14T02:07:14.672Z,99847.93
2023-05-14T02:09:42.745Z,99847.77
2023-05-14T02:12:11.952Z,99847.25
2023-05-14T02:14:39.917Z,99843.77
2023-05-14T02:17:08.086Z,99840.81
2023-05-14T02:19:36.177Z,99838.73
2023-05-14T02:22:04.233Z,99836.98
2023-05-14T02:24:32.513Z,99842.56
2023-05-14T02:27:01.540Z,99845.34
2023-05-14T02:29:29.632Z,99843.25
2023-05-14T02:31:57.733Z,99847.80
2023-05-14T02:34:26.433Z,99842.74
2023-05-14T02:36:54.502Z,99837.67
2023-05-14T02:39:22.582Z,99831.91
2023-05-14T02:41:50.955Z,99828.56
2023-05-14T02:44:19.048Z,99831.17
2023-05-14T02:46:47.353Z,99830.79
2023-05-14T02:49:15.482Z,99827.65
2023-05-14T02:51:43.361Z,99824.70
2023-05-14T02:54:11.419Z,99823.65
2023-05-14T02:56:39.800Z,99824.17
2023-05-14T02:59:07.770Z,99823.83
2023-05-14T03:01:36.047Z,99822.59
2023-05-14T03:04:04.548Z,99821.33
2023-05-14T03:06:32.700Z,99815.73
2023-05-14T03:09:00.871Z,99815.15
2023-05-14T03:11:28.949Z,99815.14
2023-05-14T03:13:57.013Z,99809.63
2023-05-14T03:16:25.151Z,99811.56
2023-05-14T03:18:53.190Z,99812.92
2023-05-14T03:21:21.127Z,99810.15
2023-05-14T03:23:49.310Z,99808.61
2023-05-14T03:26:17.482Z,99808.97
2023-05-14T03:28:45.446Z,99809.66
2023-05-14T03:31:13.538Z,99809.66
2023-05-14T03:33:41.585Z,99805.48
2023-05-14T03:36:09.661Z,99804.80
2023-05-14T03:38:37.836Z,99802.91
2023-05-14T03:41:06.111Z,99801.86
2023-05-14T03:43:34.082Z,99799.95
2023-05-14T03:46:02.458Z,99796.13
2023-05-14T03:48:30.937Z,99799.63
2023-05-14T03:50:59.115Z,99795.09
2023-05-14T03:53:27.315Z,99796.31
2023-05-14T03:55:55.257Z,99795.11
2023-05-14T03:58:23.321Z,99796.52
2023-05-14T04:00:51.201Z,99800.89
2023-05-14T04:03:19.562Z,99800.02
2023-05-14T04:05:47.546Z,99797.57
2023-05-14T04:08:15.504Z,99797.94
2023-05-14T04:10:43.680Z,99803.52
2023-05-14T04:13:11.673Z,99800.37
2023-05-14T04:15:40.474Z,99801.95
2023-05-14T04:18:08.427Z,99802.98
2023-05-14T04:20:37.192Z,99798.29
2023-05-14T04:23:05.368Z,99798.29
2023-05-14T04:25:33.484Z,99798.81
2023-05-14T04:28:01.414Z,99799.34
2023-05-14T04:30:29.995Z,99797.42
2023-05-14T04:32:58.087Z,99795.67
2023-05-14T04:35:26.236Z,99791.32
2023-05-14T04:37:54.417Z,99793.06
2023-05-14T04:40:23.267Z,99789.58
2023-05-14T04:42:51.466Z,99788.36
2023-05-14T04:45:20.260Z,99787.30
2023-05-14T04:47:48.504Z,99790.45
2023-05-14T04:50:16.912Z,99786.59
2023-05-14T04:52:44.885Z,99784.48
2023-05-14T04:55:13.061Z,99786.92
2023-05-14T04:57:41.239Z,99783.43
2023-05-14T05:00:10.343Z,99782.54
2023-05-14T05:02:38.462Z,99782.19
2023-05-14T05:05:06.584Z,99779.41
2023-05-14T05:07:34.646Z,99778.16
2023-05-14T05:10:02.926Z,99778.85
2023-05-14T05:12:31.098Z,99779.20
2023-05-14T05:14:59.174Z,99780.59
2023-05-14T05:17:27.260Z,99781.45
2023-05-14T05:19:55.621Z,99774.14
2023-05-14T05:22:23.592Z,99774.84
2023-05-14T05:24:51.759Z,99768.20
2023-05-14T05:27:22.296Z,99767.85
2023-05-14T05:29:50.261Z,99765.38
2023-05-14T05:32:17.925Z,99763.09
2023-05-14T05:34:45.756Z,99765.70
2023-05-14T05:37:15.011Z,99767.96
2023-05-14T05:39:42.750Z,99773.19
2023-05-14T05:42:10.720Z,99772.30
2023-05-14T05:44:38.389Z,99777.17
2023-05-14T05:47:06.285Z,99774.36
2023-05-14T05:49:34.131Z,99772.55
2023-05-14T05:52:01.975Z,99773.20
2023-05-14T05:54:29.644Z,99770.73
2023-05-14T05:56:57.510Z,99766.32
2023-05-14T05:59:25.173Z,99769.41
2023-05-14T06:01:52.901Z,99765.19
2023-05-14T06:04:20.802Z,99764.66
2023-05-14T06:06:49.598Z,99764.61
2023-05-14T06:09:17.679Z,99763.88
2023-05-14T06:11:45.427Z,99762.63
2023-05-14T06:14:13.095Z,99761.39
2023-05-14T06:16:40.766Z,99761.36
2023-05-14T06:19:08.893Z,99762.23
2023-05-14T06:21:36.705Z,99761.67
2023-05-14T06:24:04.465Z,99756.40
2023-05-14T06:26:32.322Z,99759.87
2023-05-14T06:28:59.979Z,99752.83
2023-05-14T06:31:27.679Z,99752.08
2023-05-14T06:33:55.407Z,99755.19
2023-05-14T06:36:23.089Z,99753.91
2023-05-14T06:38:50.832Z,99750.73
2023-05-14T06:41:18.601Z,99747.02
2023-05-14T06:43:46.257Z,99750.98
2023-05-14T06:46:13.915Z,99747.95
2023-05-14T06:48:41.611Z,99750.72
2023-05-14T06:51:09.450Z,99751.89
2023-05-14T06:53:37.318Z,99749.71
2023-05-14T06:56:04.974Z,99748.74
2023-05-14T06:58:32.755Z,99741.66
2023-05-14T07:01:00.572Z,99734.58
2023-05-14T07:03:29.295Z,99728.73
2023-05-14T07:05:56.965Z,99722.00
2023-05-14T07:08:24.741Z,99726.48
2023-05-14T07:10:52.491Z,99719.54
2023-05-14T07:13:20.152Z,99720.10
2023-05-14T07:15:47.806Z,99715.78
2023-05-14T07:18:15.503Z,99712.50
2023-05-14T07:20:43.233Z,99710.98
2023-05-14T07:23:11.002Z,99712.63
2023-05-14T07:25:38.660Z,99714.48
2023-05-14T07:28:06.422Z,99716.84
2023-05-14T07:30:34.082Z,99714.46
2023-05-14T07:33:01.770Z,99714.90
2023-05-14T07:35:29.616Z,99713.23
2023-05-14T07:37:57.274Z,99716.98
2023-05-14T07:40:27.759Z,99712.99
2023-05-14T07:42:55.470Z,99710.25
2023-05-14T07:45:23.128Z,99710.31
2023-05-14T07:47:52.358Z,99713.84
2023-05-14T07:50:20.413Z,99718.95
2023-05-14T07:52:48.062Z,99720.05
2023-05-14T07:55:15.736Z,99723.79
2023-05-14T07:57:43.499Z,99718.57
2023-05-14T08:00:11.554Z,99718.42
2023-05-14T08:02:39.402Z,99716.20
2023-05-14T08:05:07.399Z,99708.27
2023-05-14T08:07:35.175Z,99698.67
2023-05-14T08:10:02.929Z,99698.23
2023-05-14T08:12:30.701Z,99700.58
2023-05-14T08:14:58.449Z,99694.94
2023-05-14T08:17:26.361Z,99693.91
2023-05-14T08:19:54.394Z,99694.88
2023-05-14T08:22:22.057Z,99689.64
2023-05-14T08:24:49.816Z,99688.47
2023-05-14T08:27:17.496Z,99687.83
2023-05-14T08:29:45.145Z,99684.23
2023-05-14T08:32:22.917Z,99681.49
2023-05-14T08:34:51.993Z,99674.31
2023-05-14T08:37:19.900Z,99674.02
2023-05-14T08:39:47.570Z,99669.77
2023-05-14T08:42:15.229Z,99670.84
2023-05-14T08:44:42.891Z,99671.11
2023-05-14T08:47:10.550Z,99667.80
2023-05-14T08:49:38.314Z,99657.16
2023-05-14T08:52:05.934Z,99653.79
2023-05-14T08:54:33.649Z,99654.84
2023-05-14T08:57:01.298Z,99650.40
2023-05-14T08:59:28.960Z,99654.64
2023-05-14T09:01:56.843Z,99653.19
2023-05-14T09:04:24.592Z,99642.23
2023-05-14T09:06:52.258Z,99641.20
2023-05-14T09:09:22.780Z,99642.95
2023-05-14T09:11:50.549Z,99639.14
2023-05-14T09:14:18.313Z,99636.84
2023-05-14T09:16:46.056Z,99638.00
2023-05-14T09:19:14.025Z,99634.46
2023-05-14T09:21:41.910Z,99632.27
2023-05-14T09:24:09.678Z,99630.83
2023-05-14T09:26:37.439Z,99630.38
2023-05-14T09:29:05.305Z,99623.11
2023-05-14T09:31:33.007Z,99621.05
2023-05-14T09:34:00.832Z,99615.33
2023-05-14T09:36:28.704Z,99608.80
2023-05-14T09:38:56.368Z,99605.85
2023-05-14T09:41:24.654Z,99606.11
2023-05-14T09:43:52.398Z,99606.30
2023-05-14T09:46:20.086Z,99597.82
2023-05-14T09:48:47.946Z,99600.95
2023-05-14T09:51:16.104Z,99595.04
2023-05-14T09:53:43.869Z,99592.88
2023-05-14T09:56:11.645Z,99587.31
2023-05-14T09:58:39.293Z,99583.66
2023-05-14T10:01:07.534Z,99587.33
2023-05-14T10:03:35.336Z,99585.35
2023-05-14T10:06:02.997Z,99583.11
2023-05-14T10:08:30.661Z,99581.89
2023-05-14T10:10:58.320Z,99583.74
2023-05-14T10:13:25.981Z,99575.95
2023-05-14T10:15:53.747Z,99568.99
2023-05-14T10:18:21.519Z,99563.58
2023-05-14T10:20:49.278Z,99560.75
2023-05-14T10:23:17.038Z,99556.58
2023-05-14T10:25:44.700Z,99555.51
2023-05-14T10:28:12.476Z,99555.71
2023-05-14T10:30:40.229Z,99556.14
2023-05-14T10:33:08.382Z,99551.17
2023-05-14T10:35:36.373Z,99548.69
2023-05-14T10:38:04.006Z,99543.16
2023-05-14T10:40:31.696Z,99538.30
2023-05-14T10:42:59.358Z,99536.48
2023-05-14T10:45:27.121Z,99536.59
2023-05-14T10:47:55.139Z,99529.94
2023-05-14T10:50:23.848Z,99525.48
2023-05-14T10:52:51.950Z,99518.17
2023-05-14T10:55:19.624Z,99514.69
2023-05-14T10:57:50.314Z,99509.70
2023-05-14T11:00:18.435Z,99505.90
2023-05-14T11:02:47.215Z,99501.95
2023-05-14T11:05:16.035Z,99503.48
2023-05-14T11:07:43.970Z,99502.35
2023-05-14T11:10:11.761Z,99499.36
2023-05-14T11:12:39.803Z,99498.45
2023-05-14T11:15:07.677Z,99489.98
2023-05-14T11:17:35.357Z,99488.42
2023-05-14T11:20:03.268Z,99485.73
2023-05-14T11:22:31.369Z,99473.75
2023-05-14T11:24:59.354Z,99473.02
2023-05-14T11:27:27.465Z,99472.23
2023-05-14T11:29:56.302Z,99476.98
2023-05-14T11:32:24.436Z,99474.98
2023-05-14T11:34:52.788Z,99469.58
2023-05-14T11:37:20.641Z,99466.83
2023-05-14T11:39:49.120Z,99459.34
2023-05-14T11:42:19.038Z,99458.53
2023-05-14T11:44:47.413Z,99457.00
2023-05-14T11:47:15.490Z,99452.60
2023-05-14T11:49:43.555Z,99449.45
2023-05-14T11:52:12.640Z,99446.54
2023-05-14T11:54:40.834Z,99445.67
2023-05-14T11:57:08.897Z,99446.23
2023-05-14T11:59:36.977Z,99443.86
2023-05-14T12:02:05.663Z,99440.67
2023-05-14T12:04:34.200Z,99439.30
2023-05-14T12:07:02.492Z,99436.23
2023-05-14T12:09:30.359Z,99437.05
2023-05-14T12:11:58.341Z,99437.97
2023-05-14T12:14:26.501Z,99434.62
2023-05-14T12:16:54.365Z,99428.45
2023-05-14T12:19:24.319Z,99425.77
2023-05-14T12:21:55.473Z,99418.84
2023-05-14T12:24:26.644Z,99413.14
2023-05-14T12:26:57.290Z,99408.77
2023-05-14T12:29:28.273Z,99401.18
2023-05-14T12:31:56.171Z,99393.77
2023-05-14T12:34:25.857Z,99390.97
2023-05-14T12:36:54.433Z,99386.29
2023-05-14T12:39:22.607Z,99381.27
2023-05-14T12:41:50.353Z,99380.27
2023-05-14T12:44:18.413Z,99371.95
2023-05-14T12:46:46.228Z,99364.69
2023-05-14T12:49:14.045Z,99358.69
2023-05-14T12:51:41.804Z,99358.41
2023-05-14T12:54:11.334Z,99352.93
2023-05-14T12:56:39.797Z,99344.41
2023-05-14T12:59:07.972Z,99343.31
2023-05-14T13:01:37.548Z,99342.38
2023-05-14T13:04:06.405Z,99339.72
2023-05-14T13:06:34.436Z,99334.84
2023-05-14T13:09:02.824Z,99336.81
2023-05-14T13:11:32.519Z,99335.02
2023-05-14T13:14:03.673Z,99330.54
2023-05-14T13:16:39.316Z,99324.20
2023-05-14T13:19:14.326Z,99322.39
2023-05-14T13:21:45.681Z,99321.42
2023-05-14T13:24:15.517Z,99311.58
2023-05-14T13:26:44.806Z,99315.36
2023-05-14T13:29:13.086Z,99316.16
2023-05-14T13:31:41.481Z,99321.17
2023-05-14T13:34:10.458Z,99319.91
2023-05-14T13:36:39.870Z,99319.93
2023-05-14T13:39:07.647Z,99319.21
2023-05-14T13:41:35.901Z,99314.88
2023-05-14T13:44:03.663Z,99308.48
2023-05-14T13:46:31.392Z,99300.86
2023-05-14T13:48:59.297Z,99298.76
2023-05-14T13:51:26.970Z,99294.26
2023-05-14T13:56:27.204Z,99290.19
2023-05-14T13:58:54.962Z,99291.16
2023-05-14T14:01:23.507Z,99293.99
2023-05-14T14:03:51.206Z,99284.43
2023-05-14T14:06:19.177Z,99275.61
2023-05-14T14:08:47.152Z,99271.36
2023-05-14T14:11:15.015Z,99268.79
2023-05-14T14:13:45.203Z,99271.04
2023-05-14T14:16:15.149Z,99266.45
2023-05-14T14:18:43.755Z,99263.64
2023-05-14T14:21:12.435Z,99257.88
2023-05-14T14:23:40.358Z,99257.09
2023-05-14T14:26:08.664Z,99251.58
2023-05-14T14:28:36.841Z,99253.45
2023-05-14T14:31:05.557Z,99247.23
2023-05-14T14:33:34.187Z,99243.46
2023-05-14T14:36:02.381Z,99235.95
2023-05-14T14:38:33.232Z,99238.70
2023-05-14T14:41:03.552Z,99235.02
2023-05-14T14:43:32.029Z,99239.95
2023-05-14T14:46:00.440Z,99236.37
2023-05-14T14:48:29.092Z,99233.92
2023-05-14T14:50:57.273Z,99221.42
2023-05-14T14:53:25.553Z,99219.00
2023-05-14T14:55:53.919Z,99220.27
2023-05-14T14:58:22.197Z,99212.94
2023-05-14T15:00:50.259Z,99203.06
2023-05-14T15:03:19.534Z,99193.23
2023-05-14T15:05:47.541Z,99190.67
2023-05-14T15:08:15.722Z,99185.77
2023-05-14T15:10:43.785Z,99179.52
2023-05-14T15:13:12.063Z,99174.04
2023-05-14T15:15:39.728Z,99173.02
2023-05-14T15:18:07.544Z,99170.18
2023-05-14T15:20:35.352Z,99168.24
2023-05-14T15:23:03.462Z,99167.88
2023-05-14T15:25:31.203Z,99164.13
2023-05-14T15:27:58.955Z,99159.81
2023-05-14T15:30:26.613Z,99155.73
2023-05-14T15:32:54.434Z,99155.16
2023-05-14T15:35:23.618Z,99155.63
2023-05-14T15:37:51.863Z,99153.41
2023-05-14T15:40:20.255Z,99153.44
2023-05-14T15:42:48.403Z,99153.17
2023-05-14T15:45:16.704Z,99148.91
2023-05-14T15:47:45.897Z,99145.54
2023-05-14T15:50:14.281Z,99144.45
2023-05-14T15:52:42.532Z,99141.91
2023-05-14T15:55:11.025Z,99142.02
2023-05-14T15:57:39.397Z,99137.42
2023-05-14T16:00:11.552Z,99129.58
2023-05-14T16:02:40.374Z,99124.95
2023-05-14T16:05:08.941Z,99119.63
2023-05-14T16:07:37.909Z,99123.67
2023-05-14T16:10:06.111Z,99120.24
2023-05-14T16:12:33.973Z,99118.75
2023-05-14T16:15:01.730Z,99114.45
2023-05-14T16:17:30.659Z,99113.31
2023-05-14T16:19:58.383Z,99111.67
2023-05-14T16:22:26.256Z,99107.43
2023-05-14T16:24:53.911Z,99106.20
2023-05-14T16:27:22.191Z,99104.59
2023-05-14T16:29:49.851Z,99099.98
2023-05-14T16:32:17.785Z,99095.91
2023-05-14T16:34:49.851Z,99086.39
2023-05-14T16:37:17.856Z,99084.59
2023-05-14T16:39:45.931Z,99075.76
2023-05-14T16:42:13.593Z,99076.44
2023-05-14T16:44:41.345Z,99075.84
2023-05-14T16:47:09.006Z,99074.54
2023-05-14T16:49:36.873Z,99065.47
2023-05-14T16:52:04.543Z,99065.25
2023-05-14T16:54:32.278Z,99065.59
2023-05-14T16:57:00.671Z,99069.98
2023-05-14T16:59:28.643Z,99067.63
2023-05-14T17:01:56.522Z,99067.23
2023-05-14T17:04:26.806Z,99066.86
2023-05-14T17:06:55.109Z,99066.83
2023-05-14T17:09:23.076Z,99068.08
2023-05-14T17:11:51.049Z,99066.78
2023-05-14T17:14:18.705Z,99063.73
2023-05-14T17:16:46.370Z,99064.92
2023-05-14T17:19:14.060Z,99062.39
2023-05-14T17:21:41.797Z,99058.29
2023-05-14T17:24:09.558Z,99056.65
2023-05-14T17:26:38.051Z,99057.66
2023-05-14T17:29:09.196Z,99054.60
2023-05-14T17:31:36.975Z,99053.33
2023-05-14T17:34:04.911Z,99055.95
2023-05-14T17:36:32.986Z,99053.09
2023-05-14T17:39:00.958Z,99055.13
2023-05-14T17:41:29.336Z,99057.02
2023-05-14T17:43:57.609Z,99052.52
2023-05-14T17:46:25.513Z,99049.98
2023-05-14T17:48:54.067Z,99049.56
2023-05-14T17:51:22.962Z,99048.95
2023-05-14T17:53:51.543Z,99047.30
2023-05-14T17:56:20.237Z,99047.98
2023-05-14T17:58:48.310Z,99043.50
2023-05-14T18:01:16.533Z,99038.60
2023-05-14T18:03:44.916Z,99034.25
2023-05-14T18:06:13.359Z,99030.30
2023-05-14T18:08:42.130Z,99031.81
2023-05-14T18:11:10.421Z,99024.17
2023-05-14T18:13:38.487Z,99024.27
2023-05-14T18:16:06.664Z,99024.70
2023-05-14T18:18:34.920Z,99018.05
2023-05-14T18:21:03.827Z,99018.85
2023-05-14T18:23:32.205Z,99016.63
2023-05-14T18:26:00.790Z,99013.92
2023-05-14T18:28:29.278Z,99010.79
2023-05-14T18:30:57.653Z,99007.55
2023-05-14T18:33:26.547Z,99008.89
2023-05-14T18:35:54.612Z,99006.02
2023-05-14T18:38:22.893Z,99008.58
2023-05-14T18:40:50.754Z,99012.95
2023-05-14T18:43:19.843Z,99019.05
2023-05-14T18:45:48.399Z,99022.52
2023-05-14T18:48:16.726Z,99029.50
2023-05-14T18:50:44.385Z,99028.70
2023-05-14T18:53:12.150Z,99027.89
2023-05-14T18:55:39.907Z,99033.98
2023-05-14T18:58:07.562Z,99038.66
2023-05-14T19:00:35.324Z,99042.61
2023-05-14T19:03:03.063Z,99050.81
2023-05-14T19:05:31.175Z,99060.55
2023-05-14T19:07:58.821Z,99066.05
2023-05-14T19:10:26.483Z,99074.95
2023-05-14T19:12:54.246Z,99075.56
2023-05-14T19:15:22.236Z,99079.94
2023-05-14T19:17:50.139Z,99079.81
2023-05-14T19:20:17.851Z,99081.71
2023-05-14T19:22:45.610Z,99079.33
2023-05-14T19:25:13.276Z,99083.66
2023-05-14T19:27:40.930Z,99087.34
2023-05-14T19:30:08.716Z,99092.20
2023-05-14T19:32:38.057Z,99092.60
2023-05-14T19:35:05.996Z,99099.62
2023-05-14T19:37:33.732Z,99104.27
2023-05-14T19:40:01.388Z,99103.76
2023-05-14T19:42:29.277Z,99108.16
2023-05-14T19:44:57.023Z,99107.40
2023-05-14T19:47:24.847Z,99109.70
2023-05-14T19:49:52.760Z,99109.67
2023-05-14T19:52:20.426Z,99111.11
2023-05-14T19:54:48.183Z,99108.55
2023-05-14T19:57:16.048Z,99105.36
2023-05-14T19:59:44.595Z,99099.49
2023-05-14T20:02:18.728Z,99098.56
2023-05-14T20:04:47.637Z,99100.44
2023-05-14T20:07:15.863Z,99101.77
2023-05-14T20:09:43.685Z,99104.42
2023-05-14T20:12:13.089Z,99103.69
2023-05-14T20:14:41.557Z,99102.53
2023-05-14T20:17:09.420Z,99098.67
2023-05-14T20:19:37.292Z,99095.89
2023-05-14T20:22:05.063Z,99097.61
2023-05-14T20:24:33.240Z,99102.48
2023-05-14T20:27:00.994Z,99099.05
2023-05-14T20:29:28.760Z,99094.77
2023-05-14T20:31:57.239Z,99092.66
2023-05-14T20:34:25.104Z,99087.75
2023-05-14T20:36:52.976Z,99081.27
2023-05-14T20:39:20.948Z,99075.86
2023-05-14T20:41:48.718Z,99078.39
2023-05-14T20:44:16.837Z,99075.05
2023-05-14T20:46:46.235Z,99075.67
2023-05-14T20:49:14.254Z,99076.98
2023-05-14T20:51:42.321Z,99075.36
2023-05-14T20:54:09.986Z,99079.87
2023-05-14T20:56:37.855Z,99079.31
2023-05-14T20:59:05.515Z,99081.73
2023-05-14T21:01:33.394Z,99077.48
2023-05-14T21:04:01.336Z,99075.27
2023-05-14T21:06:29.322Z,99068.70
2023-05-14T21:08:57.085Z,99067.61
2023-05-14T21:11:24.974Z,99067.39
2023-05-14T21:13:52.936Z,99067.23
2023-05-14T21:16:20.866Z,99059.66
2023-05-14T21:18:48.810Z,99056.27
2023-05-14T21:21:16.621Z,99046.71
2023-05-14T21:23:44.386Z,99041.09
2023-05-14T21:26:12.179Z,99031.13
2023-05-14T21:28:39.924Z,99027.13
2023-05-14T21:31:07.676Z,99024.04
2023-05-14T21:33:35.442Z,99016.36
2023-05-14T21:36:03.455Z,99017.02
2023-05-14T21:38:32.710Z,99011.25
2023-05-14T21:41:00.476Z,99010.36
2023-05-14T21:43:28.142Z,99004.99
2023-05-14T21:45:55.799Z,98995.04
2023-05-14T21:48:23.700Z,98987.69
2023-05-14T21:50:51.430Z,98981.41
2023-05-14T21:53:19.209Z,98974.29
2023-05-14T21:55:46.970Z,98968.36
2023-05-14T21:58:14.825Z,98959.63
2023-05-14T22:00:42.497Z,98955.80
2023-05-14T22:03:10.249Z,98945.34
2023-05-14T22:05:38.015Z,98942.00
2023-05-14T22:08:06.189Z,98940.13
2023-05-14T22:10:33.954Z,98939.96
2023-05-14T22:13:01.617Z,98943.49
2023-05-14T22:15:29.285Z,98944.63
2023-05-14T22:17:57.325Z,98948.39
2023-05-14T22:20:25.217Z,98948.86
2023-05-14T22:22:53.085Z,98951.70
2023-05-14T22:25:20.844Z,98952.58
2023-05-14T22:27:48.541Z,98947.80
2023-05-14T22:30:16.270Z,98937.95
2023-05-14T22:32:44.246Z,98929.36
2023-05-14T22:35:12.021Z,98925.53
2023-05-14T22:37:39.671Z,98922.41
2023-05-14T22:40:07.539Z,98914.80
2023-05-14T22:42:35.191Z,98908.02
2023-05-14T22:45:03.172Z,98899.81
2023-05-14T22:47:31.295Z,98899.19
2023-05-14T22:49:59.102Z,98903.94
2023-05-14T22:52:26.764Z,98905.48
2023-05-14T22:54:54.734Z,98899.23
2023-05-14T22:57:22.702Z,98882.96
2023-05-14T22:59:50.368Z,98878.73
2023-05-14T23:02:18.027Z,98870.31
2023-05-14T23:04:45.798Z,98859.15
2023-05-14T23:07:13.553Z,98859.01
2023-05-14T23:09:41.523Z,98863.83
2023-05-14T23:12:09.705Z,98865.80
2023-05-14T23:14:37.359Z,98864.34
2023-05-14T23:17:05.022Z,98861.52
2023-05-14T23:19:32.709Z,98859.41
2023-05-14T23:22:00.554Z,98860.22
2023-05-14T23:24:28.209Z,98856.69
2023-05-14T23:26:56.080Z,98853.09
2023-05-14T23:29:23.747Z,98851.40
2023-05-14T23:31:51.424Z,98853.70
2023-05-14T23:34:19.275Z,98854.37
2023-05-14T23:36:46.928Z,98850.16
2023-05-14T23:39:14.600Z,98852.99
2023-05-14T23:41:42.251Z,98854.42
2023-05-14T23:44:10.025Z,98862.80
2023-05-14T23:46:37.692Z,98861.69
2023-05-14T23:49:05.344Z,98866.92
2023-05-14T23:51:33.111Z,98861.27
2023-05-14T23:54:00.969Z,98859.84
2023-05-14T23:56:29.407Z,98864.66
2023-05-14T23:58:57.222Z,98872.36
